Time;durP1;ratioP1;P1;durP2;ratioP2;P2;SDS_P1;SDS_P2;PMS_P1;PMS_P2;Temp;Humidity;BMP_temperature;BMP_pressure;BME280_temperature;BME280_humidity;BME280_pressure;Samples;Min_cycle;Max_cycle;Signal;HPM_P1;HPM_P2
2023/04/09 00:00:43;;;;;;;2.27;2.10;;;10.80;99.90;;;10.87;64.68;101451.53;5012464;28;20667;-65
2023/04/09 00:03:10;;;;;;;3.50;3.03;;;10.70;99.90;;;10.86;65.68;101449.84;5011771;28;20633;-67
2023/04/09 00:05:40;;;;;;;3.67;2.93;;;10.80;99.90;;;10.86;65.25;101439.38;5012735;28;20732;-66
2023/04/09 00:08:07;;;;;;;3.30;3.03;;;10.80;99.90;;;10.87;65.93;101442.84;5010534;28;20735;-65
2023/04/09 00:10:34;;;;;;;4.60;3.47;;;10.80;99.90;;;10.87;65.35;101437.63;5010905;28;20657;-65
2023/04/09 00:13:01;;;;;;;3.50;2.83;;;10.80;99.90;;;10.85;65.33;101435.13;5010458;28;20640;-66
2023/04/09 00:15:28;;;;;;;3.10;2.80;;;10.70;99.90;;;10.88;65.49;101436.72;4998802;28;20633;-64
2023/04/09 00:17:58;;;;;;;4.03;2.90;;;10.80;99.90;;;10.86;65.97;101431.56;5003534;28;21200;-65
2023/04/09 00:20:25;;;;;;;3.10;2.73;;;10.80;99.90;;;10.87;66.19;101437.63;4999805;28;20759;-66
2023/04/09 00:22:52;;;;;;;5.33;3.73;;;10.80;99.90;;;10.85;65.43;101436.88;5008595;28;20660;-67
2023/04/09 00:25:19;;;;;;;5.27;3.50;;;10.80;99.90;;;10.84;65.75;101435.19;5008105;28;21010;-66
2023/04/09 00:27:46;;;;;;;3.97;2.80;;;10.80;99.90;;;10.82;66.41;101430.06;5007846;28;20633;-65
2023/04/09 00:30:13;;;;;;;2.10;1.90;;;10.70;99.90;;;10.80;65.28;101424.09;5013677;28;20657;-66
2023/04/09 00:32:39;;;;;;;4.40;3.97;;;10.70;99.90;;;10.79;65.65;101427.66;5017587;28;20627;-67
2023/04/09 00:35:07;;;;;;;4.00;3.17;;;10.70;99.90;;;10.81;66.24;101428.41;5011363;28;20971;-66
2023/04/09 00:37:34;;;;;;;4.03;3.20;;;10.70;99.90;;;10.79;66.44;101435.50;5009910;28;20672;-66
2023/04/09 00:40:01;;;;;;;5.43;3.77;;;10.70;99.90;;;10.76;66.87;101430.44;5017165;28;20637;-66
2023/04/09 00:42:36;;;;;;;2.80;2.50;;;10.70;99.90;;;10.75;65.90;101425.31;5019859;28;20609;-65
2023/04/09 00:45:05;;;;;;;4.27;3.17;;;10.70;99.90;;;10.70;66.42;101424.75;5010555;28;20633;-67
2023/04/09 00:47:34;;;;;;;4.77;3.97;;;10.60;99.90;;;10.65;67.08;101422.41;5010377;28;20641;-66
2023/04/09 00:50:02;;;;;;;3.57;2.90;;;10.60;99.90;;;10.64;66.40;101425.97;5011760;28;20653;-66
2023/04/09 00:52:29;;;;;;;5.33;3.77;;;10.60;99.90;;;10.64;66.72;101428.56;5012251;28;21215;-65
2023/04/09 00:54:59;;;;;;;3.53;3.20;;;10.60;99.90;;;10.62;67.06;101437.41;5011328;28;20629;-63
2023/04/09 00:57:27;;;;;;;5.73;4.00;;;10.60;99.90;;;10.56;68.96;101436.00;5006835;28;20629;-65
2023/04/09 00:59:54;;;;;;;5.10;4.30;;;10.50;99.90;;;10.52;69.29;101431.88;5011094;28;20652;-66
2023/04/09 01:02:21;;;;;;;4.77;3.60;;;10.40;99.90;;;10.47;69.24;101435.72;5005376;28;20655;-65
2023/04/09 01:04:49;;;;;;;5.27;4.10;;;10.40;99.90;;;10.36;69.70;101431.13;5005648;28;21035;-65
2023/04/09 01:07:53;;;;;;;4.77;3.73;;;10.30;99.90;;;10.30;70.34;101430.63;5001239;28;20667;-65
2023/04/09 01:10:31;;;;;;;5.00;3.97;;;10.30;99.90;;;10.23;71.28;101437.13;5010426;28;20759;-65
2023/04/09 01:13:16;;;;;;;5.60;4.00;;;10.20;99.90;;;10.17;71.44;101425.28;5010399;28;20603;-65
2023/04/09 01:15:52;;;;;;;6.70;4.10;;;10.10;99.90;;;10.10;71.09;101429.13;5008854;28;20640;-65
2023/04/09 01:18:45;;;;;;;4.13;3.73;;;10.00;99.90;;;10.03;71.46;101419.97;5010773;28;20628;-65
2023/04/09 01:21:18;;;;;;;5.77;4.10;;;10.00;99.90;;;10.04;71.56;101422.53;5023559;28;20644;-65
2023/04/09 01:23:53;;;;;;;4.73;3.97;;;10.00;99.90;;;10.04;71.44;101421.66;5010635;28;20799;-65
2023/04/09 01:27:02;;;;;;;5.63;4.50;;;9.90;99.90;;;10.00;71.07;101420.16;5002122;28;20736;-65
2023/04/09 01:29:44;;;;;;;4.40;3.90;;;9.90;99.90;;;9.94;nan;101413.53;5007791;28;20729;-65
2023/04/09 01:32:13;;;;;;;5.97;4.23;;;9.90;99.90;;;9.91;72.19;101418.91;5009368;28;20662;-65
2023/04/09 01:34:41;;;;;;;4.73;4.03;;;9.80;99.90;;;9.89;72.20;101414.72;5010984;28;20626;-65
2023/04/09 01:37:08;;;;;;;3.97;3.67;;;9.80;99.90;;;9.88;72.58;101415.66;5003961;28;20650;-65
2023/04/09 01:39:37;;;;;;;7.43;4.50;;;9.80;99.90;;;9.90;72.29;101422.44;5002975;28;20605;-65
2023/04/09 01:42:08;;;;;;;5.20;4.10;;;9.80;99.90;;;9.89;72.56;101417.31;5025477;28;21247;-65
2023/04/09 01:44:38;;;;;;;7.77;4.40;;;9.80;99.90;;;9.86;72.52;101418.34;5025923;28;20653;-65
2023/04/09 01:47:07;;;;;;;6.67;4.33;;;9.80;99.90;;;9.84;72.26;101421.94;5008906;28;21239;-65
2023/04/09 01:49:35;;;;;;;5.30;3.93;;;9.80;99.90;;;9.82;72.45;101429.84;5011364;28;20688;-65
2023/04/09 01:52:02;;;;;;;6.53;4.27;;;9.70;99.90;;;9.82;72.56;101429.00;5012059;23;20694;-65
2023/04/09 01:54:29;;;;;;;5.57;3.87;;;9.70;99.90;;;9.84;72.83;101432.38;4990376;28;21968;-65
2023/04/09 01:56:57;;;;;;;6.83;4.40;;;9.80;99.90;;;9.85;72.91;101429.69;4992476;28;20655;-66
2023/04/09 01:59:24;;;;;;;6.33;4.50;;;9.80;99.90;;;9.87;72.74;101429.59;4990337;28;20630;-64
2023/04/09 02:02:06;;;;;;;5.17;4.33;;;9.80;99.90;;;9.91;72.67;101433.72;4985446;28;20673;-66
2023/04/09 02:04:42;;;;;;;5.40;4.40;;;9.80;99.90;;;9.91;73.02;101425.91;5020777;28;20665;-65
2023/04/09 02:07:36;;;;;;;6.83;4.50;;;9.90;99.90;;;9.90;72.72;101439.88;5011467;28;21394;-66
2023/04/09 02:10:05;;;;;;;7.83;4.77;;;9.80;99.90;;;9.82;72.44;101437.69;5003608;28;20658;-65
2023/04/09 02:12:38;;;;;;;6.87;4.47;;;9.80;99.90;;;9.79;72.50;101437.88;4997983;28;20629;-65
2023/04/09 02:15:06;;;;;;;5.70;4.43;;;9.80;99.90;;;9.77;72.83;101431.91;5010165;28;20628;-65
2023/04/09 02:17:33;;;;;;;6.67;4.50;;;9.70;99.90;;;9.71;73.27;101431.41;5011221;28;20624;-66
2023/04/09 02:19:59;;;;;;;6.33;4.87;;;9.70;99.90;;;9.68;73.70;101431.56;4980443;28;21085;-66
2023/04/09 02:22:26;;;;;;;6.03;4.77;;;9.60;99.90;;;9.68;73.97;101431.56;4999080;28;20712;-66
2023/04/09 02:24:53;;;;;;;6.97;4.23;;;9.60;99.90;;;9.60;74.15;101438.97;4996474;28;21239;-66
2023/04/09 02:27:20;;;;;;;9.20;4.10;;;9.60;99.90;;;9.59;73.82;101430.31;4994871;28;20649;-66
2023/04/09 02:29:47;;;;;;;3.77;3.47;;;9.50;99.90;;;9.59;74.69;101432.91;5010165;28;20740;-68
2023/04/09 02:32:14;;;;;;;8.07;5.20;;;9.50;99.90;;;9.57;74.37;101431.31;5008421;28;21016;-66
2023/04/09 02:34:41;;;;;;;5.83;4.60;;;9.50;99.90;;;9.58;74.38;101433.00;5003250;28;20633;-65
2023/04/09 02:37:08;;;;;;;7.20;4.53;;;9.50;99.90;;;9.55;74.73;101436.63;5008636;28;20629;-66
2023/04/09 02:39:35;;;;;;;9.97;6.00;;;9.50;99.90;;;9.49;74.27;101431.75;5003830;28;20635;-66
2023/04/09 02:42:01;;;;;;;7.27;5.00;;;9.40;99.90;;;9.47;74.82;101427.53;5008671;28;20658;-66
2023/04/09 02:44:28;;;;;;;6.33;4.30;;;9.40;99.90;;;9.47;74.61;101435.34;5010006;28;20660;-66
2023/04/09 02:46:55;;;;;;;6.00;4.37;;;9.40;99.90;;;9.44;74.90;101430.28;5009305;28;20633;-66
2023/04/09 02:49:22;;;;;;;7.47;4.93;;;9.40;99.90;;;9.45;74.65;101426.78;5010764;28;21260;-67
2023/04/09 02:51:49;;;;;;;8.70;5.30;;;9.40;99.90;;;9.45;75.03;101427.63;5003569;28;20668;-66
2023/04/09 02:54:16;;;;;;;8.47;5.50;;;9.40;99.90;;;9.47;74.83;101432.75;5010108;28;20625;-67
2023/04/09 02:56:43;;;;;;;6.53;4.70;;;9.40;99.90;;;9.47;75.25;101432.75;5002570;28;20680;-68
2023/04/09 02:59:09;;;;;;;6.30;4.40;;;9.40;99.90;;;9.43;75.27;101423.41;5000280;28;21185;-66
2023/04/09 03:01:36;;;;;;;7.67;4.80;;;9.30;99.90;;;9.47;75.49;101427.53;5001540;28;21271;-65
2023/04/09 03:04:03;;;;;;;6.90;4.70;;;9.40;99.90;;;9.47;75.37;101436.19;4997595;28;20639;-65
2023/04/09 03:06:30;;;;;;;6.03;4.23;;;9.40;99.90;;;9.46;75.41;101431.06;5001598;28;20649;-66
2023/04/09 03:08:57;;;;;;;7.70;5.33;;;9.40;99.90;;;9.43;75.52;101423.41;5002437;28;21033;-66
2023/04/09 03:11:24;;;;;;;7.53;5.23;;;9.30;99.90;;;9.45;75.56;101419.81;5000427;28;20707;-68
2023/04/09 03:13:51;;;;;;;7.20;4.80;;;9.40;99.90;;;9.50;75.51;101424.78;5000220;28;20705;-67
2023/04/09 03:16:18;;;;;;;8.63;5.40;;;9.40;99.90;;;9.48;75.26;101414.41;5009167;28;20621;-68
2023/04/09 03:18:45;;;;;;;8.00;5.50;;;9.40;99.90;;;9.46;75.89;101423.22;5009637;28;20633;-66
2023/04/09 03:21:12;;;;;;;8.00;5.33;;;9.40;99.90;;;9.38;75.91;101419.31;5011320;28;20645;-66
2023/04/09 03:23:40;;;;;;;7.97;5.10;;;9.30;99.90;;;9.31;76.27;101417.94;5003347;28;21292;-68
2023/04/09 03:26:07;;;;;;;5.87;4.10;;;9.20;99.90;;;9.23;76.56;101421.88;4998194;28;20649;-68
2023/04/09 03:28:34;;;;;;;5.33;4.27;;;9.20;99.90;;;9.17;76.90;101423.06;5007183;28;20692;-65
2023/04/09 03:31:01;;;;;;;6.27;4.83;;;9.10;99.90;;;9.10;76.85;101413.91;5010060;28;20645;-68
2023/04/09 03:33:28;;;;;;;7.60;5.53;;;9.10;99.90;;;9.06;77.32;101416.75;5011527;28;20621;-65
2023/04/09 03:35:55;;;;;;;8.77;5.90;;;9.00;99.90;;;8.98;77.61;101408.50;5004925;28;20644;-66
2023/04/09 03:38:22;;;;;;;10.70;6.20;;;8.90;99.90;;;8.94;77.86;101404.38;5009857;28;20614;-65
2023/04/09 03:40:49;;;;;;;8.33;5.20;;;8.90;99.90;;;8.89;78.37;101415.03;5008871;28;20664;-66
2023/04/09 03:43:16;;;;;;;9.57;6.00;;;8.90;99.90;;;8.86;78.06;101409.97;4992278;28;21010;-65
2023/04/09 03:45:42;;;;;;;8.20;5.10;;;8.80;99.90;;;8.81;78.99;101406.78;4990289;28;21046;-65
2023/04/09 03:48:09;;;;;;;8.83;5.13;;;8.80;99.90;;;8.78;79.03;101400.88;5004782;28;20629;-65
2023/04/09 03:50:40;;;;;;;9.83;5.30;;;8.80;99.90;;;8.72;78.71;101412.47;5009071;28;21053;-65
2023/04/09 03:53:07;;;;;;;10.93;5.43;;;8.70;99.90;;;8.71;79.34;101409.97;5010431;28;20625;-65
2023/04/09 03:55:34;;;;;;;9.33;5.40;;;8.70;99.90;;;8.67;79.17;101414.47;5008737;28;20635;-66
2023/04/09 03:58:01;;;;;;;8.57;5.40;;;8.60;99.90;;;8.63;79.23;101417.28;5009285;28;20625;-65
2023/04/09 04:00:28;;;;;;;9.60;5.33;;;8.60;99.90;;;8.59;79.52;101419.22;5007383;28;20684;-65
2023/04/09 04:02:55;;;;;;;7.03;4.60;;;8.50;99.90;;;8.56;79.85;101411.59;5010305;28;20627;-65
2023/04/09 04:05:26;;;;;;;8.23;4.57;;;8.50;99.90;;;8.53;79.20;101416.94;5008437;28;21300;-66
2023/04/09 04:07:53;;;;;;;10.17;5.53;;;8.50;99.90;;;8.48;80.20;101418.91;5008294;28;21247;-66
2023/04/09 04:10:20;;;;;;;10.90;5.73;;;8.50;99.90;;;8.43;80.62;101413.13;5008628;28;20673;-65
2023/04/09 04:12:47;;;;;;;8.53;5.40;;;8.40;99.90;;;8.42;80.09;101404.47;5013391;28;21043;-65
2023/04/09 04:15:14;;;;;;;13.03;5.70;;;8.40;99.90;;;8.38;81.16;101408.16;5013273;28;21049;-68
2023/04/09 04:17:41;;;;;;;9.10;5.20;;;8.40;99.90;;;8.36;80.85;101406.56;5014282;28;20656;-65
2023/04/09 04:20:08;;;;;;;10.03;5.77;;;8.30;99.90;;;8.34;80.62;101413.59;5014077;28;20656;-68
2023/04/09 04:22:35;;;;;;;8.77;5.43;;;8.30;99.90;;;8.32;81.07;101408.47;5013108;28;20664;-65
2023/04/09 04:25:05;;;;;;;9.50;5.00;;;8.30;99.90;;;8.32;80.53;101410.22;5013088;28;20613;-65
2023/04/09 04:27:32;;;;;;;7.40;4.70;;;8.30;99.90;;;8.32;80.44;101418.03;5011533;28;20621;-67
2023/04/09 04:30:00;;;;;;;11.20;6.03;;;8.30;99.90;;;8.32;79.97;101418.03;5003104;28;20715;-65
2023/04/09 04:32:28;;;;;;;9.40;5.83;;;8.30;99.90;;;8.30;80.48;101417.25;5013072;28;20703;-65
2023/04/09 04:34:55;;;;;;;9.23;5.60;;;8.30;99.90;;;8.32;80.49;101421.47;5011568;28;21220;-65
2023/04/09 04:37:22;;;;;;;8.67;5.57;;;8.30;99.90;;;8.34;80.56;101427.44;5008062;28;20640;-66
2023/04/09 04:39:48;;;;;;;11.80;6.27;;;8.30;99.90;;;8.36;80.55;101420.41;4994403;28;20661;-68
2023/04/09 04:42:16;;;;;;;9.37;5.87;;;8.30;99.90;;;8.40;80.60;101423.69;4993063;28;21225;-67
2023/04/09 04:44:43;;;;;;;7.07;4.73;;;8.40;99.90;;;8.41;80.76;101425.38;5008966;28;21251;-66
2023/04/09 04:47:10;;;;;;;9.23;5.87;;;8.40;99.90;;;8.43;79.84;101426.13;4997846;28;20656;-67
2023/04/09 04:49:37;;;;;;;10.33;5.50;;;8.40;99.90;;;8.41;80.28;101427.97;5010197;28;20756;-68
2023/04/09 04:52:06;;;;;;;12.73;7.20;;;8.40;99.90;;;8.37;80.74;101431.63;5012068;28;20660;-66
2023/04/09 04:54:33;;;;;;;12.23;6.30;;;8.30;99.90;;;8.37;80.45;101432.47;5013670;28;20988;-66
2023/04/09 04:57:00;;;;;;;11.87;6.00;;;8.30;99.90;;;8.38;79.98;101428.97;5011852;28;20637;-65
2023/04/09 04:59:27;;;;;;;9.57;6.00;;;8.40;99.90;;;8.41;79.93;101434.00;5004954;28;21073;-66
2023/04/09 05:01:54;;;;;;;9.90;5.93;;;8.40;99.90;;;8.41;80.27;101427.97;5006179;28;20665;-66
2023/04/09 05:04:21;;;;;;;6.27;4.97;;;8.40;99.90;;;8.43;80.21;101433.94;5009439;28;20637;-65
2023/04/09 05:06:48;;;;;;;6.60;4.50;;;8.40;99.90;;;8.45;79.83;101430.31;5012266;28;21294;-67
2023/04/09 05:09:15;;;;;;;6.10;4.17;;;8.40;99.90;;;8.44;80.10;101431.25;5012443;28;20711;-66
2023/04/09 05:11:42;;;;;;;10.53;6.30;;;8.40;99.90;;;8.45;80.00;101427.72;5012398;28;20656;-65
2023/04/09 05:14:09;;;;;;;9.77;6.40;;;8.40;99.90;;;8.43;80.67;101431.34;5013000;28;21229;-66
2023/04/09 05:16:36;;;;;;;12.13;5.87;;;8.40;99.90;;;8.40;80.05;101434.09;5010532;28;21212;-65
2023/04/09 05:19:03;;;;;;;13.27;6.70;;;8.40;99.90;;;8.37;80.11;101436.81;5008162;28;20737;-64
2023/04/09 05:21:30;;;;;;;12.00;6.10;;;8.40;99.90;;;8.38;80.70;101439.38;5006698;28;20649;-65
2023/04/09 05:23:57;;;;;;;8.70;5.73;;;8.30;99.90;;;8.39;80.42;101435.84;5002762;28;20662;-67
2023/04/09 05:26:25;;;;;;;9.93;6.20;;;8.40;99.90;;;8.46;79.70;101436.38;4991933;28;20660;-66
2023/04/09 05:28:52;;;;;;;9.40;6.47;;;8.40;99.90;;;8.50;79.87;101443.94;4998927;28;20712;-66
2023/04/09 05:31:19;;;;;;;11.30;6.30;;;8.50;99.90;;;8.57;79.63;101442.72;5010790;28;20668;-66
2023/04/09 05:33:46;;;;;;;11.77;6.60;;;8.50;99.90;;;8.67;79.32;101439.66;5013052;28;21029;-66
2023/04/09 05:36:17;;;;;;;10.80;6.80;;;8.60;99.90;;;8.87;78.65;101442.06;5011582;28;20617;-63
2023/04/09 05:38:46;;;;;;;12.13;6.43;;;8.80;99.90;;;9.14;77.21;101441.44;5001391;28;20644;-68
2023/04/09 05:41:13;;;;;;;10.57;6.50;;;9.00;99.90;;;9.50;75.62;101453.44;5010452;28;20642;-65
2023/04/09 05:43:41;;;;;;;9.33;5.90;;;9.30;99.90;;;9.81;74.08;101440.38;5012573;28;20628;-67
2023/04/09 05:46:08;;;;;;;10.30;6.43;;;9.70;99.90;;;10.16;72.07;101444.47;5009642;28;20617;-66
2023/04/09 05:48:35;;;;;;;11.47;6.07;;;10.00;99.90;;;10.45;70.98;101442.78;4992273;28;20670;-65
2023/04/09 05:51:03;;;;;;;9.03;5.53;;;10.30;99.90;;;10.79;70.23;101447.69;4991887;28;20677;-68
2023/04/09 05:53:30;;;;;;;10.13;5.60;;;10.60;99.90;;;11.13;69.25;101449.09;5004322;28;20690;-67
2023/04/09 05:55:57;;;;;;;3.53;3.17;;;11.00;99.90;;;11.48;67.85;101447.75;5000468;28;20634;-68
2023/04/09 05:58:24;;;;;;;9.10;5.40;;;11.40;99.90;;;11.80;66.13;101443.16;5007345;28;21141;-68
2023/04/09 06:00:51;;;;;;;9.40;5.30;;;11.70;99.90;;;12.06;65.03;101445.72;4993947;28;20657;-67
2023/04/09 06:03:19;;;;;;;4.87;3.63;;;12.00;99.90;;;12.43;63.56;101446.78;4994986;28;20629;-68
2023/04/09 06:05:47;;;;;;;7.53;4.77;;;12.40;99.90;;;12.80;62.79;101450.38;5009692;28;20725;-67
2023/04/09 06:08:14;;;;;;;9.13;5.90;;;12.80;99.90;;;13.01;61.98;101457.56;5011789;28;20633;-67
2023/04/09 06:10:41;;;;;;;10.13;6.57;;;13.00;99.90;;;13.37;60.96;101451.59;5011015;28;21031;-68
2023/04/09 06:13:09;;;;;;;10.97;6.13;;;13.30;99.90;;;13.69;59.23;101459.81;4998371;28;20672;-68
2023/04/09 06:15:38;;;;;;;9.90;6.27;;;13.60;99.90;;;13.90;57.94;101460.88;5006130;28;20617;-66
2023/04/09 06:18:05;;;;;;;10.00;6.00;;;13.90;99.90;;;14.00;58.29;101467.97;5010102;28;20687;-68
2023/04/09 06:20:32;;;;;;;10.00;6.47;;;13.90;99.90;;;14.53;57.24;101465.78;5011133;28;20646;-66
2023/04/09 06:22:59;;;;;;;9.90;6.40;;;14.40;99.90;;;15.09;55.35;101467.56;5007418;28;20642;-68
2023/04/09 06:25:26;;;;;;;10.47;6.20;;;15.00;99.90;;;15.27;53.94;101474.00;4992179;28;20630;-66
2023/04/09 06:27:53;;;;;;;10.13;6.50;;;15.30;99.90;;;15.27;54.22;101474.00;5002783;28;21021;-66
2023/04/09 06:30:19;;;;;;;8.87;6.03;;;15.30;99.90;;;15.25;54.08;101475.09;5010565;28;20722;-66
2023/04/09 06:32:47;;;;;;;8.50;5.97;;;15.20;99.90;;;15.20;54.36;101472.00;5010520;28;20625;-66
2023/04/09 06:35:21;;;;;;;8.50;6.10;;;15.20;99.90;;;15.31;54.67;101472.81;5008126;28;21042;-66
2023/04/09 06:37:47;;;;;;;6.70;5.80;;;15.20;99.90;;;16.11;52.46;101476.03;5010046;28;20629;-66
2023/04/09 06:40:14;;;;;;;14.60;7.43;;;16.00;99.90;;;17.10;50.60;101468.56;4998004;28;20648;-67
2023/04/09 06:42:41;;;;;;;9.27;6.77;;;16.90;99.20;;;17.79;47.33;101480.91;4999885;28;20691;-67
2023/04/09 06:45:09;;;;;;;10.60;7.07;;;17.80;96.20;;;17.80;47.60;101477.31;5001177;28;20641;-66
2023/04/09 06:47:36;;;;;;;10.47;6.43;;;17.90;95.20;;;17.72;47.78;101477.97;4999627;28;20638;-66
2023/04/09 06:50:03;;;;;;;12.90;7.33;;;17.80;94.70;;;17.45;48.27;101484.81;4999370;28;20666;-64
2023/04/09 06:52:30;;;;;;;10.77;6.73;;;17.60;94.80;;;16.82;49.96;101484.09;4999988;28;20650;-66
2023/04/09 06:54:57;;;;;;;11.70;7.23;;;17.10;95.20;;;16.28;51.04;101483.41;5000182;28;20636;-66
2023/04/09 06:57:25;;;;;;;11.87;6.97;;;16.50;95.80;;;15.67;52.51;101481.44;5000638;28;21216;-66
2023/04/09 06:59:52;;;;;;;11.07;7.30;;;15.90;96.70;;;15.11;53.46;101480.59;4999431;28;20665;-67
2023/04/09 07:02:19;;;;;;;10.13;6.70;;;15.30;97.50;;;14.82;54.16;101476.75;5005334;28;20669;-65
2023/04/09 07:04:46;;;;;;;11.87;7.80;;;14.90;98.40;;;14.48;55.32;101475.81;5006860;28;20648;-67
2023/04/09 07:07:13;;;;;;;15.10;8.17;;;14.60;99.20;;;14.16;56.21;101477.34;5000546;28;20729;-66
2023/04/09 07:09:41;;;;;;;12.53;6.70;;;14.30;99.90;;;14.09;56.60;101469.06;5005271;28;20647;-66
2023/04/09 07:12:08;;;;;;;13.60;6.97;;;14.20;99.90;;;13.98;57.16;101474.25;5009325;28;20650;-67
2023/04/09 07:14:35;;;;;;;10.87;6.30;;;14.00;99.90;;;13.81;57.27;101478.13;5005079;28;20704;-65
2023/04/09 07:17:02;;;;;;;8.87;5.87;;;13.90;99.90;;;13.78;57.57;101477.47;5002376;28;20625;-66
2023/04/09 07:19:28;;;;;;;15.33;8.77;;;13.90;99.90;;;13.78;58.84;101473.06;5010196;28;20640;-68
2023/04/09 07:21:55;;;;;;;12.10;8.00;;;13.90;99.90;;;14.18;57.60;101472.81;5011244;28;20633;-66
2023/04/09 07:24:22;;;;;;;14.47;7.57;;;14.20;99.90;;;14.47;57.16;101471.50;5010078;28;20614;-66
2023/04/09 07:26:49;;;;;;;12.90;7.87;;;14.50;99.90;;;14.81;56.59;101475.06;5006624;28;20633;-65
2023/04/09 07:29:19;;;;;;;12.57;7.90;;;14.70;99.90;;;15.46;54.75;101479.53;4999570;28;20684;-66
2023/04/09 07:31:46;;;;;;;13.57;7.87;;;15.30;99.90;;;15.95;52.68;101471.19;4990111;28;20678;-64
2023/04/09 07:34:13;;;;;;;12.67;7.67;;;15.80;99.50;;;16.60;52.03;101471.06;4998168;28;20645;-66
2023/04/09 07:36:41;;;;;;;13.27;7.27;;;16.40;99.10;;;17.56;49.47;101485.59;4996457;28;20636;-66
2023/04/09 07:39:09;;;;;;;12.80;7.97;;;17.30;97.10;;;18.02;47.98;101476.19;4988427;28;20646;-66
2023/04/09 07:41:36;;;;;;;12.27;7.70;;;17.90;95.40;;;18.57;46.95;101484.28;5003158;28;20644;-64
2023/04/09 07:44:05;;;;;;;14.00;8.70;;;18.40;94.50;;;18.71;46.13;101483.03;4998739;28;21374;-66
2023/04/09 07:46:32;;;;;;;8.80;6.60;;;18.80;93.00;;;18.99;46.08;101478.66;5008311;28;20638;-67
2023/04/09 07:48:59;;;;;;;14.73;8.40;;;19.00;92.50;;;19.66;44.86;101489.78;5003677;28;20695;-66
2023/04/09 07:51:26;;;;;;;11.70;7.00;;;19.70;91.50;;;20.19;42.77;101487.19;5034690;22;20690;-64
2023/04/09 07:53:53;;;;;;;13.00;8.40;;;20.30;88.80;;;19.84;43.15;101495.97;5033310;28;20639;-62
2023/04/09 07:56:20;;;;;;;13.13;8.33;;;20.10;86.70;;;19.91;43.40;101491.72;5033449;28;20731;-66
2023/04/09 07:58:48;;;;;;;14.50;8.60;;;20.10;86.70;;;20.60;42.48;101496.38;5033700;28;20620;-65
2023/04/09 08:01:15;;;;;;;11.90;7.50;;;20.70;85.60;;;21.57;41.53;101503.94;5028560;28;20654;-64
2023/04/09 08:03:41;;;;;;;13.77;9.60;;;21.70;83.00;;;22.27;nan;101499.16;5007637;28;20637;-68
2023/04/09 08:06:09;;;;;;;14.50;9.10;;;22.60;77.80;;;22.71;nan;101499.69;4999838;28;20640;-66
2023/04/09 08:08:36;;;;;;;13.87;9.70;;;23.20;74.90;;;22.84;nan;101495.50;5008442;28;20645;-64
2023/04/09 08:11:03;;;;;;;15.97;10.67;;;23.40;72.80;;;23.07;nan;101495.63;4993234;28;20665;-68
2023/04/09 08:13:30;;;;;;;14.50;10.20;;;23.50;71.60;;;23.24;nan;101497.25;5012272;28;21014;-67
2023/04/09 08:16:00;;;;;;;14.53;9.67;;;23.70;71.00;;;23.11;nan;101488.94;5005008;28;20633;-68
2023/04/09 08:18:28;;;;;;;14.20;9.47;;;23.60;70.20;;;23.48;nan;101497.19;5009491;28;20644;-68
2023/04/09 08:20:56;;;;;;;13.50;9.27;;;24.00;69.20;;;24.17;nan;101493.63;5006300;28;20677;-67
2023/04/09 08:23:22;;;;;;;14.30;9.73;;;24.60;67.70;;;25.23;nan;101499.69;4995016;28;21193;-65
2023/04/09 08:25:49;;;;;;;18.17;12.90;;;25.70;65.40;;;25.88;nan;101497.03;5007385;28;20656;-67
2023/04/09 08:28:18;;;;;;;19.93;11.30;;;;;;;26.37;nan;101495.31;5004992;28;20637;-65
2023/04/09 08:30:46;;;;;;;21.13;12.50;;;26.90;60.70;;;26.38;nan;101496.97;5012146;28;20668;-68
2023/04/09 08:33:13;;;;;;;17.00;11.37;;;27.10;59.80;;;26.73;nan;101495.22;5001295;28;20643;-66
2023/04/09 08:35:41;;;;;;;14.33;10.73;;;27.40;59.00;;;27.06;nan;101498.97;5010637;28;20748;-67
2023/04/09 08:38:08;;;;;;;15.30;10.67;;;27.70;57.90;;;26.89;nan;101502.97;5008687;28;20663;-66
2023/04/09 08:40:35;;;;;;;16.20;11.63;;;27.70;56.10;;;27.04;nan;101502.88;4995248;28;20638;-65
2023/04/09 08:43:06;;;;;;;17.30;11.97;;;27.60;56.50;;;28.14;nan;101501.72;4998160;28;20633;-65
2023/04/09 08:45:34;;;;;;;14.67;10.50;;;28.70;55.50;;;28.18;nan;101493.06;5009049;28;20638;-66
2023/04/09 08:48:02;;;;;;;18.00;12.20;;;29.00;53.80;;;27.55;nan;101496.16;5008375;28;20703;-64
2023/04/09 08:50:33;;;;;;;14.57;10.17;;;28.50;53.70;;;26.43;nan;101493.72;5005160;28;20691;-64
2023/04/09 08:53:02;;;;;;;15.40;10.97;;;27.40;53.60;;;25.15;nan;101491.78;4992198;28;20629;-67
2023/04/09 08:55:30;;;;;;;12.10;7.67;;;26.00;54.60;;;23.77;nan;101493.88;4992639;28;20622;-66
2023/04/09 08:57:57;;;;;;;14.40;8.73;;;24.60;56.40;;;22.51;nan;101493.03;5002738;28;21215;-67
2023/04/09 09:00:24;;;;;;;17.60;11.43;;;23.20;58.20;;;21.45;nan;101497.25;5002518;28;20646;-67
2023/04/09 09:03:11;;;;;;;16.53;10.77;;;22.00;60.70;;;21.14;nan;101496.13;5003416;28;20661;-67
2023/04/09 09:05:40;;;;;;;18.10;10.30;;;21.40;63.60;;;21.44;nan;101506.22;5002686;28;20640;-67
2023/04/09 09:08:29;;;;;;;13.17;8.17;;;21.60;63.30;;;21.02;nan;101510.59;5005444;28;20641;-65
2023/04/09 09:10:56;;;;;;;14.90;8.37;;;21.30;63.00;;;20.58;nan;101503.66;5008643;28;20674;-67
2023/04/09 09:13:24;;;;;;;10.60;6.83;;;20.90;64.00;;;20.30;nan;101510.03;4992544;28;20972;-66
2023/04/09 09:15:55;;;;;;;12.00;7.97;;;20.60;64.70;;;19.77;nan;101507.28;4993735;28;20630;-65
2023/04/09 09:18:43;;;;;;;15.83;9.40;;;20.00;65.50;;;19.77;nan;101507.28;5009017;28;20633;-67
2023/04/09 09:21:11;;;;;;;12.67;8.93;;;19.90;66.40;;;19.97;nan;101503.56;4991667;28;21239;-64
2023/04/09 09:23:38;;;;;;;9.63;6.93;;;19.90;67.60;;;20.50;nan;101496.47;5010116;28;20629;-66
2023/04/09 09:26:27;;;;;;;12.93;8.47;;;20.50;65.90;;;20.36;nan;101499.66;5012104;28;20647;-65
2023/04/09 09:28:57;;;;;;;13.40;7.80;;;20.40;65.40;;;20.67;nan;101500.06;5013722;28;20691;-64
2023/04/09 09:31:24;;;;;;;13.83;8.77;;;20.60;65.90;;;21.12;nan;101503.41;5010134;28;20661;-65
2023/04/09 09:33:53;;;;;;;12.23;8.37;;;21.10;65.20;;;21.07;nan;101505.69;5011411;28;20644;-64
2023/04/09 09:36:33;;;;;;;12.80;8.30;;;21.10;65.30;;;20.86;nan;101502.53;5008108;28;20637;-64
2023/04/09 09:39:08;;;;;;;11.50;7.93;;;20.90;65.50;;;20.64;nan;101492.41;4997080;28;20642;-64
2023/04/09 09:41:36;;;;;;;11.90;8.10;;;20.80;65.00;;;20.61;nan;101484.78;5001880;28;20662;-63
2023/04/09 09:44:06;;;;;;;10.83;7.40;;;20.70;65.30;;;20.74;nan;101483.38;5006411;28;20640;-67
2023/04/09 09:46:40;;;;;;;11.67;8.30;;;20.70;65.00;;;21.90;nan;101480.16;5000566;28;20640;-67
2023/04/09 09:49:08;;;;;;;12.40;8.20;;;21.60;63.90;;;23.98;nan;101487.94;4999591;28;20660;-65
2023/04/09 09:51:38;;;;;;;11.90;7.33;;;23.80;60.60;;;25.43;nan;101490.13;5001910;28;20677;-65
2023/04/09 09:54:11;;;;;;;11.23;8.50;;;25.40;57.90;;;27.39;nan;101494.63;5000384;28;20630;-65
2023/04/09 09:56:41;;;;;;;10.57;6.40;;;27.40;55.50;;;27.39;nan;101491.97;4998109;28;20637;-65
2023/04/09 09:59:23;;;;;;;10.00;7.03;;;27.80;52.90;;;26.02;nan;101488.16;5013446;28;20665;-66
2023/04/09 10:02:03;;;;;;;11.07;8.30;;;26.70;53.50;;;24.23;nan;101482.28;4998616;28;20664;-64
2023/04/09 10:04:37;;;;;;;10.20;7.63;;;25.00;54.90;;;22.87;nan;101479.19;5000616;28;21049;-66
2023/04/09 10:07:05;;;;;;;11.33;7.77;;;23.50;57.20;;;22.10;nan;101474.41;5001797;28;20908;-64
2023/04/09 10:09:42;;;;;;;11.03;8.13;;;22.60;58.30;;;21.58;nan;101473.75;4992845;28;20634;-64
2023/04/09 10:12:10;;;;;;;9.70;7.13;;;21.90;59.30;;;21.38;nan;101471.50;4996971;28;20679;-64
2023/04/09 10:14:39;;;;;;;11.30;7.50;;;21.60;60.60;;;21.31;nan;101465.16;5001572;28;20625;-62
2023/04/09 10:17:06;;;;;;;10.63;7.20;;;21.50;61.30;;;20.93;nan;101470.91;5004928;28;20698;-64
2023/04/09 10:19:41;;;;;;;13.20;8.10;;;21.10;62.00;;;20.37;nan;101460.72;5005358;28;20684;-67
2023/04/09 10:22:11;;;;;;;10.10;7.67;;;20.50;62.90;;;19.83;nan;101451.09;5006761;28;21439;-64
2023/04/09 10:24:39;;;;;;;9.70;7.40;;;20.00;63.20;;;19.46;nan;101460.94;5009346;28;21026;-66